RYR052 LGAV-EGSS
Flight info
| Callsign | RYR052 |
|---|---|
| Flight time | 3h 30m |
| Altitude | 36000 |
| Route | KOR UL53 IXONI DCT VARDI DCT DIMIS DCT UNDER DCT TRN DCT INLOT DCT RETRA DCT SOLGU DCT PIXAL DCT PODET DCT NEMAL DCT SIMBA DCT MAMOR DCT INBED DCT BOMBI DCT ADKUV DCT LENDO DCT SOGRI L608 BUB DCT KOZUF DCT IMPOH DCT SASKI L608 SUMUM Y6 TOSVA |
| Aircraft | B738/M-SDE2E3FGHIRWXY/LB1 |
Departure
| Time | 2026-05-05 07:42 |
|---|---|
| Airport | Athens Eleftherios Venizelos International Airport (LGAV) |
Arrival
| Time | 2026-05-05 11:12 |
|---|---|
| Airport | London Stansted Airport (EGSS) |
| Time | Latitude | Longitude | Altitude | Speed | Heading |
|---|---|---|---|---|---|
| 2026-05-05 07:05 | 37.93020 | 23.94326 | 302 ft | 0 kts | 38° |
| 2026-05-05 07:18 | 37.93019 | 23.94326 | 300 ft | 0 kts | 38° |
| 2026-05-05 07:31 | 37.93003 | 23.94309 | 304 ft | 4 kts | 40° |
| 2026-05-05 07:31 | 37.92983 | 23.94286 | 302 ft | 4 kts | 46° |
| 2026-05-05 07:31 | 37.92966 | 23.94260 | 301 ft | 4 kts | 61° |
| 2026-05-05 07:31 | 37.92959 | 23.94232 | 300 ft | 4 kts | 110° |
| 2026-05-05 07:32 | 37.92961 | 23.94224 | 300 ft | 1 kts | 128° |
| 2026-05-05 07:37 | 37.92961 | 23.94226 | 300 ft | 1 kts | 128° |
| 2026-05-05 07:37 | 37.92945 | 23.94251 | 303 ft | 7 kts | 128° |
| 2026-05-05 07:38 | 37.92906 | 23.94314 | 300 ft | 10 kts | 127° |
| 2026-05-05 07:38 | 37.92853 | 23.94362 | 300 ft | 10 kts | 181° |
| 2026-05-05 07:38 | 37.92795 | 23.94324 | 301 ft | 10 kts | 216° |
| 2026-05-05 07:38 | 37.92742 | 23.94274 | 302 ft | 9 kts | 217° |
| 2026-05-05 07:39 | 37.92692 | 23.94225 | 302 ft | 9 kts | 217° |
| 2026-05-05 07:39 | 37.92637 | 23.94191 | 303 ft | 9 kts | 178° |
| 2026-05-05 07:39 | 37.92589 | 23.94234 | 302 ft | 9 kts | 128° |
| 2026-05-05 07:39 | 37.92554 | 23.94293 | 304 ft | 8 kts | 126° |
| 2026-05-05 07:40 | 37.92521 | 23.94352 | 305 ft | 8 kts | 127° |
| 2026-05-05 07:40 | 37.92488 | 23.94408 | 307 ft | 8 kts | 120° |
| 2026-05-05 07:40 | 37.92500 | 23.94467 | 307 ft | 8 kts | 41° |
| 2026-05-05 07:40 | 37.92517 | 23.94483 | 306 ft | 0 kts | 38° |
| 2026-05-05 07:41 | 37.92517 | 23.94484 | 306 ft | 1 kts | 38° |
| 2026-05-05 07:41 | 37.92598 | 23.94560 | 306 ft | 44 kts | 36° |
| 2026-05-05 07:41 | 37.93038 | 23.94978 | 296 ft | 113 kts | 37° |
| 2026-05-05 07:41 | 37.93825 | 23.95727 | 282 ft | 168 kts | 38° |
| 2026-05-05 07:42 | 37.94808 | 23.96655 | 778 ft | 180 kts | 38° |
| 2026-05-05 07:42 | 37.95810 | 23.97566 | 1681 ft | 171 kts | 34° |
| 2026-05-05 07:42 | 37.96727 | 23.98454 | 2544 ft | 164 kts | 34° |
| 2026-05-05 07:42 | 37.97655 | 23.99355 | 3043 ft | 179 kts | 35° |
| 2026-05-05 07:43 | 37.98679 | 24.00349 | 3636 ft | 187 kts | 35° |
| 2026-05-05 07:43 | 37.99678 | 24.01323 | 4604 ft | 173 kts | 34° |
| 2026-05-05 07:43 | 38.00602 | 24.02219 | 5424 ft | 165 kts | 34° |
| 2026-05-05 07:43 | 38.01546 | 24.03129 | 5885 ft | 178 kts | 34° |
| 2026-05-05 07:44 | 38.02564 | 24.04108 | 6364 ft | 185 kts | 35° |
| 2026-05-05 07:44 | 38.03563 | 24.05072 | 7093 ft | 176 kts | 34° |
| 2026-05-05 07:44 | 38.04521 | 24.05994 | 7751 ft | 173 kts | 34° |
| 2026-05-05 07:44 | 38.05493 | 24.06928 | 8273 ft | 181 kts | 34° |
| 2026-05-05 07:45 | 38.06507 | 24.07902 | 8826 ft | 184 kts | 34° |
| 2026-05-05 07:45 | 38.07577 | 24.08930 | 9069 ft | 204 kts | 35° |
| 2026-05-05 07:45 | 38.08549 | 24.10345 | 9202 ft | 228 kts | 63° |
| 2026-05-05 07:45 | 38.08823 | 24.12428 | 9388 ft | 256 kts | 92° |
| 2026-05-05 07:46 | 38.08188 | 24.14666 | 9573 ft | 288 kts | 122° |
| 2026-05-05 07:46 | 38.06689 | 24.16427 | 10158 ft | 303 kts | 149° |
| 2026-05-05 07:46 | 38.04632 | 24.17227 | 10515 ft | 324 kts | 176° |
| 2026-05-05 07:46 | 38.02378 | 24.16737 | 10692 ft | 346 kts | 205° |
| 2026-05-05 07:47 | 38.00423 | 24.14877 | 10856 ft | 363 kts | 233° |
| 2026-05-05 07:47 | 37.99232 | 24.12001 | 11087 ft | 375 kts | 254° |
| 2026-05-05 07:47 | 37.98459 | 24.08809 | 11602 ft | 383 kts | 255° |
| 2026-05-05 07:47 | 37.97625 | 24.05590 | 12286 ft | 385 kts | 253° |
| 2026-05-05 07:48 | 37.96685 | 24.02397 | 13043 ft | 388 kts | 251° |
| 2026-05-05 07:48 | 37.95645 | 23.99226 | 13705 ft | 392 kts | 249° |
| 2026-05-05 07:48 | 37.94533 | 23.96049 | 14306 ft | 396 kts | 249° |
| 2026-05-05 07:48 | 37.93402 | 23.92913 | 14958 ft | 397 kts | 248° |
| 2026-05-05 07:49 | 37.92244 | 23.89734 | 15621 ft | 398 kts | 248° |
| 2026-05-05 07:49 | 37.91081 | 23.86540 | 16227 ft | 401 kts | 248° |
| 2026-05-05 07:49 | 37.89909 | 23.83328 | 16826 ft | 403 kts | 248° |
| 2026-05-05 07:49 | 37.88999 | 23.79989 | 17372 ft | 401 kts | 264° |
| 2026-05-05 07:50 | 37.88963 | 23.76495 | 18011 ft | 397 kts | 277° |
| 2026-05-05 07:50 | 37.89170 | 23.73002 | 18578 ft | 399 kts | 276° |
| 2026-05-05 07:50 | 37.89375 | 23.69481 | 19017 ft | 403 kts | 276° |
| 2026-05-05 07:50 | 37.89569 | 23.65975 | 19491 ft | 406 kts | 276° |
| 2026-05-05 07:51 | 37.89761 | 23.62401 | 19992 ft | 408 kts | 276° |
| 2026-05-05 07:51 | 37.89947 | 23.58812 | 20485 ft | 410 kts | 276° |
| 2026-05-05 07:51 | 37.90127 | 23.55204 | 20953 ft | 412 kts | 276° |
| 2026-05-05 07:51 | 37.90308 | 23.51568 | 21404 ft | 415 kts | 276° |
| 2026-05-05 07:52 | 37.90487 | 23.47917 | 21862 ft | 417 kts | 276° |
| 2026-05-05 07:52 | 37.90667 | 23.44238 | 22329 ft | 419 kts | 276° |
| 2026-05-05 07:52 | 37.90845 | 23.40545 | 22733 ft | 422 kts | 276° |
| 2026-05-05 07:52 | 37.91019 | 23.36825 | 23131 ft | 425 kts | 277° |
| 2026-05-05 07:53 | 37.91194 | 23.33137 | 23560 ft | 426 kts | 277° |
| 2026-05-05 07:53 | 37.91373 | 23.29377 | 23932 ft | 428 kts | 277° |
| 2026-05-05 07:53 | 37.91550 | 23.25605 | 24281 ft | 430 kts | 277° |
| 2026-05-05 07:53 | 37.91726 | 23.21823 | 24643 ft | 431 kts | 277° |
| 2026-05-05 07:54 | 37.91901 | 23.18024 | 24995 ft | 432 kts | 277° |
| 2026-05-05 07:54 | 37.92076 | 23.14213 | 25330 ft | 434 kts | 277° |
| 2026-05-05 07:54 | 37.92249 | 23.10394 | 25640 ft | 436 kts | 278° |
| 2026-05-05 07:54 | 37.92421 | 23.06551 | 25983 ft | 437 kts | 278° |
| 2026-05-05 07:55 | 37.92593 | 23.02756 | 26284 ft | 439 kts | 278° |
| 2026-05-05 07:55 | 37.92766 | 22.98887 | 26575 ft | 440 kts | 278° |
| 2026-05-05 07:55 | 37.93086 | 22.95042 | 26852 ft | 437 kts | 287° |
| 2026-05-05 07:55 | 37.94137 | 22.91468 | 27131 ft | 431 kts | 301° |
| 2026-05-05 07:56 | 37.95764 | 22.88299 | 27464 ft | 429 kts | 307° |
| 2026-05-05 07:56 | 37.97507 | 22.85228 | 27790 ft | 430 kts | 308° |
| 2026-05-05 07:56 | 37.99258 | 22.82159 | 28181 ft | 429 kts | 308° |
| 2026-05-05 07:56 | 38.00985 | 22.79091 | 28639 ft | 426 kts | 307° |
| 2026-05-05 07:57 | 38.02662 | 22.76068 | 29079 ft | 424 kts | 307° |
| 2026-05-05 07:57 | 38.04347 | 22.72999 | 29456 ft | 424 kts | 307° |
| 2026-05-05 07:57 | 38.06026 | 22.69930 | 29837 ft | 423 kts | 307° |
| 2026-05-05 07:57 | 38.07705 | 22.66868 | 30248 ft | 421 kts | 307° |
| 2026-05-05 07:58 | 38.09375 | 22.63824 | 30613 ft | 419 kts | 307° |
| 2026-05-05 07:58 | 38.11035 | 22.60794 | 30965 ft | 418 kts | 307° |
| 2026-05-05 07:58 | 38.12691 | 22.57765 | 31295 ft | 417 kts | 307° |
| 2026-05-05 07:58 | 38.14343 | 22.54743 | 31614 ft | 416 kts | 307° |
| 2026-05-05 07:59 | 38.15988 | 22.51731 | 31956 ft | 414 kts | 307° |
| 2026-05-05 07:59 | 38.17603 | 22.48769 | 32288 ft | 413 kts | 307° |
| 2026-05-05 07:59 | 38.19236 | 22.45777 | 32600 ft | 412 kts | 307° |
| 2026-05-05 07:59 | 38.20859 | 22.42798 | 33016 ft | 407 kts | 307° |
| 2026-05-05 08:00 | 38.22462 | 22.39852 | 33426 ft | 404 kts | 307° |
| 2026-05-05 08:00 | 38.24061 | 22.36913 | 33696 ft | 404 kts | 307° |
| 2026-05-05 08:00 | 38.25663 | 22.33966 | 33916 ft | 405 kts | 307° |
| 2026-05-05 08:00 | 38.27262 | 22.31022 | 34188 ft | 404 kts | 307° |
| 2026-05-05 08:01 | 38.28850 | 22.28084 | 34457 ft | 403 kts | 307° |
| 2026-05-05 08:01 | 38.30550 | 22.25258 | 34661 ft | 401 kts | 314° |
| 2026-05-05 08:01 | 38.32503 | 22.22795 | 34824 ft | 401 kts | 319° |
| 2026-05-05 08:01 | 38.34701 | 22.20611 | 35033 ft | 400 kts | 327° |
| 2026-05-05 08:02 | 38.37067 | 22.18748 | 35266 ft | 400 kts | 328° |
| 2026-05-05 08:02 | 38.39448 | 22.16900 | 35406 ft | 401 kts | 328° |
| 2026-05-05 08:02 | 38.41839 | 22.15050 | 35541 ft | 403 kts | 328° |
| 2026-05-05 08:02 | 38.44231 | 22.13192 | 35725 ft | 403 kts | 328° |
| 2026-05-05 08:03 | 38.46621 | 22.11320 | 35904 ft | 403 kts | 328° |
| 2026-05-05 08:03 | 38.49002 | 22.09454 | 36081 ft | 400 kts | 328° |
| 2026-05-05 08:03 | 38.53713 | 22.05750 | 36138 ft | 402 kts | 327° |
| 2026-05-05 08:04 | 38.58481 | 22.01988 | 36140 ft | 404 kts | 327° |
| 2026-05-05 08:04 | 38.63268 | 21.98205 | 36141 ft | 405 kts | 327° |
| 2026-05-05 08:05 | 38.68012 | 21.94390 | 36131 ft | 406 kts | 325° |
| 2026-05-05 08:05 | 38.72581 | 21.90142 | 36133 ft | 406 kts | 323° |
| 2026-05-05 08:06 | 38.77087 | 21.85803 | 36142 ft | 405 kts | 323° |
| 2026-05-05 08:06 | 38.81604 | 21.81481 | 36144 ft | 405 kts | 323° |
| 2026-05-05 08:07 | 38.86093 | 21.77204 | 36126 ft | 404 kts | 323° |
| 2026-05-05 08:07 | 38.90608 | 21.72910 | 36135 ft | 404 kts | 323° |
| 2026-05-05 08:08 | 38.95117 | 21.68619 | 36136 ft | 403 kts | 323° |
| 2026-05-05 08:08 | 38.99616 | 21.64322 | 36135 ft | 402 kts | 323° |
| 2026-05-05 08:09 | 39.04077 | 21.60061 | 36142 ft | 402 kts | 323° |
| 2026-05-05 08:09 | 39.08573 | 21.55770 | 36146 ft | 402 kts | 323° |
| 2026-05-05 08:10 | 39.13037 | 21.51489 | 36142 ft | 402 kts | 323° |
| 2026-05-05 08:10 | 39.17511 | 21.47184 | 36142 ft | 401 kts | 323° |
| 2026-05-05 08:11 | 39.21895 | 21.42975 | 36135 ft | 401 kts | 323° |
| 2026-05-05 08:11 | 39.26368 | 21.38674 | 36139 ft | 401 kts | 323° |
| 2026-05-05 08:12 | 39.30838 | 21.34365 | 36142 ft | 401 kts | 323° |
| 2026-05-05 08:12 | 39.35302 | 21.30043 | 36155 ft | 401 kts | 322° |
| 2026-05-05 08:13 | 39.39739 | 21.25746 | 36152 ft | 402 kts | 323° |
| 2026-05-05 08:13 | 39.44216 | 21.21412 | 36146 ft | 402 kts | 323° |
| 2026-05-05 08:14 | 39.48692 | 21.17069 | 36161 ft | 402 kts | 323° |
| 2026-05-05 08:14 | 39.53176 | 21.12712 | 36136 ft | 403 kts | 322° |
| 2026-05-05 08:15 | 39.57657 | 21.08342 | 36141 ft | 403 kts | 322° |
| 2026-05-05 08:15 | 39.62105 | 21.04000 | 36172 ft | 403 kts | 322° |
| 2026-05-05 08:16 | 39.66588 | 20.99620 | 36141 ft | 404 kts | 322° |
| 2026-05-05 08:16 | 39.71076 | 20.95229 | 36157 ft | 404 kts | 322° |
| 2026-05-05 08:17 | 39.75533 | 20.90856 | 36164 ft | 404 kts | 322° |
| 2026-05-05 08:17 | 39.80018 | 20.86448 | 36161 ft | 404 kts | 322° |
| 2026-05-05 08:18 | 39.84502 | 20.82034 | 36163 ft | 404 kts | 322° |
| 2026-05-05 08:18 | 39.88984 | 20.77614 | 36152 ft | 404 kts | 322° |
| 2026-05-05 08:19 | 39.93467 | 20.73195 | 36140 ft | 404 kts | 322° |
| 2026-05-05 08:19 | 39.97923 | 20.68792 | 36133 ft | 405 kts | 321° |
| 2026-05-05 08:20 | 40.02407 | 20.64347 | 36133 ft | 405 kts | 321° |
| 2026-05-05 08:20 | 40.06908 | 20.59938 | 36123 ft | 405 kts | 325° |
| 2026-05-05 08:21 | 40.11887 | 20.56483 | 36122 ft | 406 kts | 332° |
| 2026-05-05 08:21 | 40.16948 | 20.53287 | 36130 ft | 407 kts | 332° |
| 2026-05-05 08:22 | 40.22030 | 20.50035 | 36134 ft | 407 kts | 332° |
| 2026-05-05 08:22 | 40.27120 | 20.46775 | 36113 ft | 408 kts | 331° |
| 2026-05-05 08:23 | 40.32203 | 20.43494 | 36126 ft | 407 kts | 331° |
| 2026-05-05 08:23 | 40.37250 | 20.40238 | 36147 ft | 407 kts | 331° |
| 2026-05-05 08:24 | 40.42335 | 20.36947 | 36135 ft | 408 kts | 331° |
| 2026-05-05 08:24 | 40.47425 | 20.33652 | 36135 ft | 408 kts | 331° |
| 2026-05-05 08:25 | 40.52516 | 20.30349 | 36120 ft | 408 kts | 331° |
| 2026-05-05 08:25 | 40.57567 | 20.27072 | 36111 ft | 408 kts | 331° |
| 2026-05-05 08:26 | 40.62639 | 20.23764 | 36151 ft | 407 kts | 331° |
| 2026-05-05 08:26 | 40.67712 | 20.20463 | 36143 ft | 407 kts | 331° |
| 2026-05-05 08:27 | 40.71931 | 20.17714 | 36136 ft | 407 kts | 330° |
| 2026-05-05 08:27 | 40.77821 | 20.13860 | 36141 ft | 407 kts | 331° |
| 2026-05-05 08:28 | 40.82891 | 20.10538 | 36139 ft | 407 kts | 330° |
| 2026-05-05 08:28 | 40.87963 | 20.07209 | 36139 ft | 407 kts | 330° |
| 2026-05-05 08:29 | 40.92179 | 20.04433 | 36129 ft | 407 kts | 331° |
| 2026-05-05 08:30 | 41.00614 | 19.98880 | 36123 ft | 408 kts | 330° |
| 2026-05-05 08:30 | 41.05695 | 19.95526 | 36126 ft | 408 kts | 330° |
| 2026-05-05 08:31 | 41.09917 | 19.92741 | 36135 ft | 408 kts | 330° |
| 2026-05-05 08:31 | 41.14990 | 19.89396 | 36142 ft | 407 kts | 330° |
| 2026-05-05 08:32 | 41.20892 | 19.85510 | 36141 ft | 408 kts | 330° |
| 2026-05-05 08:32 | 41.25976 | 19.82148 | 36135 ft | 409 kts | 331° |
| 2026-05-05 08:33 | 41.30208 | 19.79351 | 36132 ft | 409 kts | 330° |
| 2026-05-05 08:33 | 41.35313 | 19.75975 | 36131 ft | 410 kts | 330° |
| 2026-05-05 08:34 | 41.40416 | 19.72579 | 36136 ft | 410 kts | 330° |
| 2026-05-05 08:34 | 41.45703 | 19.69779 | 36142 ft | 413 kts | 337° |
| 2026-05-05 08:35 | 41.51145 | 19.67282 | 36151 ft | 414 kts | 337° |
| 2026-05-05 08:35 | 41.56591 | 19.64783 | 36143 ft | 414 kts | 337° |
| 2026-05-05 08:36 | 41.62029 | 19.62252 | 36150 ft | 414 kts | 337° |
| 2026-05-05 08:36 | 41.67421 | 19.59714 | 36149 ft | 414 kts | 336° |
| 2026-05-05 08:37 | 41.72853 | 19.57166 | 36149 ft | 414 kts | 337° |
| 2026-05-05 08:37 | 41.78281 | 19.54613 | 36151 ft | 414 kts | 336° |
| 2026-05-05 08:38 | 41.83713 | 19.52047 | 36153 ft | 414 kts | 337° |
| 2026-05-05 08:38 | 41.89105 | 19.49504 | 36160 ft | 414 kts | 337° |
| 2026-05-05 08:39 | 41.94538 | 19.46934 | 36156 ft | 414 kts | 336° |
| 2026-05-05 08:39 | 41.99980 | 19.44361 | 36148 ft | 415 kts | 336° |
| 2026-05-05 08:40 | 42.05422 | 19.41775 | 36158 ft | 415 kts | 336° |
| 2026-05-05 08:40 | 42.10836 | 19.39199 | 36147 ft | 416 kts | 336° |
| 2026-05-05 08:41 | 42.16292 | 19.36603 | 36144 ft | 416 kts | 336° |
| 2026-05-05 08:41 | 42.21745 | 19.33970 | 36154 ft | 416 kts | 334° |
| 2026-05-05 08:42 | 42.26760 | 19.30223 | 36170 ft | 411 kts | 324° |
| 2026-05-05 08:42 | 42.31577 | 19.26035 | 36161 ft | 412 kts | 324° |
| 2026-05-05 08:43 | 42.36380 | 19.21875 | 36152 ft | 413 kts | 324° |
| 2026-05-05 08:43 | 42.41226 | 19.17687 | 36156 ft | 414 kts | 324° |
| 2026-05-05 08:44 | 42.46081 | 19.13510 | 36157 ft | 413 kts | 324° |
| 2026-05-05 08:44 | 42.50941 | 19.09321 | 36159 ft | 414 kts | 324° |
| 2026-05-05 08:45 | 42.55766 | 19.05153 | 36144 ft | 414 kts | 324° |
| 2026-05-05 08:45 | 42.60625 | 19.00941 | 36148 ft | 415 kts | 324° |
| 2026-05-05 08:46 | 42.65488 | 18.96721 | 36143 ft | 415 kts | 324° |
| 2026-05-05 08:46 | 42.70345 | 18.92503 | 36136 ft | 413 kts | 324° |
| 2026-05-05 08:47 | 42.75147 | 18.88320 | 36140 ft | 414 kts | 324° |
| 2026-05-05 08:47 | 42.80008 | 18.84078 | 36135 ft | 416 kts | 324° |
| 2026-05-05 08:48 | 42.84892 | 18.79807 | 36140 ft | 418 kts | 324° |
| 2026-05-05 08:48 | 42.89794 | 18.75502 | 36127 ft | 420 kts | 324° |
| 2026-05-05 08:49 | 42.94684 | 18.71217 | 36127 ft | 421 kts | 324° |
| 2026-05-05 08:49 | 42.99608 | 18.66883 | 36126 ft | 421 kts | 323° |
| 2026-05-05 08:50 | 43.04535 | 18.62544 | 36128 ft | 421 kts | 324° |
| 2026-05-05 08:50 | 43.09455 | 18.58201 | 36120 ft | 421 kts | 324° |
| 2026-05-05 08:51 | 43.14381 | 18.53843 | 36124 ft | 422 kts | 324° |
| 2026-05-05 08:51 | 43.19277 | 18.49501 | 36120 ft | 422 kts | 324° |
| 2026-05-05 08:52 | 43.24211 | 18.45130 | 36119 ft | 423 kts | 323° |
| 2026-05-05 08:52 | 43.29143 | 18.40733 | 36103 ft | 423 kts | 323° |
| 2026-05-05 08:53 | 43.34076 | 18.36344 | 36105 ft | 422 kts | 323° |
| 2026-05-05 08:53 | 43.38994 | 18.31958 | 36110 ft | 421 kts | 323° |
| 2026-05-05 08:54 | 43.43868 | 18.27595 | 36118 ft | 421 kts | 323° |
| 2026-05-05 08:54 | 43.48780 | 18.23192 | 36120 ft | 422 kts | 323° |
| 2026-05-05 08:55 | 43.53700 | 18.18772 | 36117 ft | 423 kts | 323° |
| 2026-05-05 08:55 | 43.58630 | 18.14325 | 36116 ft | 424 kts | 323° |
| 2026-05-05 08:56 | 43.63552 | 18.09891 | 36093 ft | 426 kts | 323° |
| 2026-05-05 08:56 | 43.68517 | 18.05401 | 36091 ft | 427 kts | 323° |
| 2026-05-05 08:57 | 43.73498 | 18.00896 | 36092 ft | 429 kts | 323° |
| 2026-05-05 08:57 | 43.78489 | 17.96373 | 36099 ft | 430 kts | 323° |
| 2026-05-05 08:58 | 43.83453 | 17.91853 | 36087 ft | 430 kts | 323° |
| 2026-05-05 08:58 | 43.88449 | 17.87298 | 36084 ft | 430 kts | 323° |
| 2026-05-05 08:59 | 43.93439 | 17.82747 | 36089 ft | 430 kts | 323° |
| 2026-05-05 08:59 | 43.98436 | 17.78180 | 36084 ft | 429 kts | 324° |
| 2026-05-05 09:00 | 44.03394 | 17.73636 | 36081 ft | 431 kts | 323° |
| 2026-05-05 09:00 | 44.08405 | 17.69035 | 36074 ft | 432 kts | 323° |
| 2026-05-05 09:01 | 44.13415 | 17.64386 | 36068 ft | 433 kts | 322° |
| 2026-05-05 09:01 | 44.18347 | 17.59556 | 36059 ft | 434 kts | 321° |
| 2026-05-05 09:02 | 44.23233 | 17.54716 | 36061 ft | 434 kts | 321° |
| 2026-05-05 09:02 | 44.28169 | 17.49835 | 36057 ft | 435 kts | 322° |
| 2026-05-05 09:03 | 44.33120 | 17.44957 | 36052 ft | 435 kts | 321° |
| 2026-05-05 09:03 | 44.38063 | 17.40071 | 36041 ft | 435 kts | 321° |
| 2026-05-05 09:04 | 44.42965 | 17.35221 | 36042 ft | 435 kts | 322° |
| 2026-05-05 09:04 | 44.47899 | 17.30331 | 36019 ft | 435 kts | 321° |
| 2026-05-05 09:05 | 44.52831 | 17.25430 | 36026 ft | 435 kts | 322° |
| 2026-05-05 09:05 | 44.57727 | 17.20552 | 36032 ft | 435 kts | 321° |
| 2026-05-05 09:06 | 44.62658 | 17.15635 | 36011 ft | 435 kts | 321° |
| 2026-05-05 09:06 | 44.67593 | 17.10712 | 36022 ft | 435 kts | 322° |
| 2026-05-05 09:07 | 44.72526 | 17.05764 | 36009 ft | 435 kts | 321° |
| 2026-05-05 09:07 | 44.77421 | 17.00850 | 36012 ft | 435 kts | 321° |
| 2026-05-05 09:08 | 44.82345 | 16.95890 | 36013 ft | 436 kts | 322° |
| 2026-05-05 09:08 | 44.87274 | 16.90915 | 36006 ft | 436 kts | 321° |
| 2026-05-05 09:09 | 44.92206 | 16.85927 | 36016 ft | 436 kts | 321° |
| 2026-05-05 09:09 | 44.97144 | 16.80935 | 36013 ft | 437 kts | 321° |
| 2026-05-05 09:10 | 45.02049 | 16.75959 | 36011 ft | 437 kts | 321° |
| 2026-05-05 09:10 | 45.06987 | 16.70931 | 36013 ft | 438 kts | 321° |
| 2026-05-05 09:11 | 45.11935 | 16.65886 | 36003 ft | 439 kts | 321° |
| 2026-05-05 09:11 | 45.16887 | 16.60833 | 36016 ft | 439 kts | 321° |
| 2026-05-05 09:12 | 45.21806 | 16.55803 | 36011 ft | 439 kts | 321° |
| 2026-05-05 09:12 | 45.26812 | 16.50824 | 36007 ft | 440 kts | 323° |
| 2026-05-05 09:13 | 45.31910 | 16.46013 | 36005 ft | 440 kts | 323° |
| 2026-05-05 09:13 | 45.36993 | 16.41175 | 36009 ft | 440 kts | 323° |
| 2026-05-05 09:14 | 45.42029 | 16.36332 | 36013 ft | 440 kts | 323° |
| 2026-05-05 09:14 | 45.47095 | 16.31447 | 36008 ft | 440 kts | 323° |
| 2026-05-05 09:15 | 45.52151 | 16.26546 | 36010 ft | 439 kts | 323° |
| 2026-05-05 09:15 | 45.57206 | 16.21640 | 36008 ft | 439 kts | 323° |
| 2026-05-05 09:16 | 45.62227 | 16.16761 | 36007 ft | 440 kts | 323° |
| 2026-05-05 09:16 | 45.67284 | 16.11836 | 36012 ft | 440 kts | 322° |
| 2026-05-05 09:17 | 45.72341 | 16.06890 | 36026 ft | 441 kts | 322° |
| 2026-05-05 09:17 | 45.77412 | 16.01932 | 36023 ft | 441 kts | 322° |
| 2026-05-05 09:18 | 45.82445 | 15.96990 | 36017 ft | 442 kts | 322° |
| 2026-05-05 09:18 | 45.87517 | 15.92000 | 35994 ft | 443 kts | 322° |
| 2026-05-05 09:19 | 45.92599 | 15.86990 | 35992 ft | 444 kts | 322° |
| 2026-05-05 09:19 | 45.97688 | 15.81969 | 35997 ft | 444 kts | 322° |
| 2026-05-05 09:20 | 46.02747 | 15.76963 | 36000 ft | 445 kts | 322° |
| 2026-05-05 09:20 | 46.07839 | 15.71912 | 36000 ft | 444 kts | 322° |
| 2026-05-05 09:21 | 46.12929 | 15.66853 | 36002 ft | 444 kts | 322° |
| 2026-05-05 09:21 | 46.17988 | 15.61739 | 35981 ft | 443 kts | 320° |
| 2026-05-05 09:22 | 46.22800 | 15.56194 | 35977 ft | 442 kts | 318° |
| 2026-05-05 09:22 | 46.27500 | 15.50598 | 35968 ft | 441 kts | 317° |
| 2026-05-05 09:23 | 46.32232 | 15.44977 | 35962 ft | 440 kts | 317° |
| 2026-05-05 09:23 | 46.36971 | 15.39389 | 35979 ft | 439 kts | 318° |
| 2026-05-05 09:24 | 46.41676 | 15.33841 | 35966 ft | 438 kts | 317° |
| 2026-05-05 09:24 | 46.46398 | 15.28262 | 35968 ft | 438 kts | 318° |
| 2026-05-05 09:25 | 46.51117 | 15.22672 | 35951 ft | 438 kts | 317° |
| 2026-05-05 09:25 | 46.55830 | 15.17071 | 35952 ft | 438 kts | 318° |
| 2026-05-05 09:26 | 46.60514 | 15.11501 | 35965 ft | 438 kts | 317° |
| 2026-05-05 09:26 | 46.65238 | 15.05864 | 35961 ft | 440 kts | 317° |
| 2026-05-05 09:27 | 46.69975 | 15.00206 | 35948 ft | 440 kts | 317° |
| 2026-05-05 09:27 | 46.74711 | 14.94524 | 35956 ft | 442 kts | 317° |
| 2026-05-05 09:28 | 46.79423 | 14.88854 | 35955 ft | 443 kts | 317° |
| 2026-05-05 09:28 | 46.84193 | 14.83123 | 35950 ft | 444 kts | 317° |
| 2026-05-05 09:29 | 46.88965 | 14.77357 | 35950 ft | 445 kts | 317° |
| 2026-05-05 09:29 | 46.93746 | 14.71574 | 35942 ft | 446 kts | 317° |
| 2026-05-05 09:30 | 46.98531 | 14.65781 | 35939 ft | 446 kts | 317° |
| 2026-05-05 09:30 | 47.03274 | 14.60018 | 35947 ft | 446 kts | 317° |
| 2026-05-05 09:31 | 47.08046 | 14.54206 | 35933 ft | 446 kts | 317° |
| 2026-05-05 09:31 | 47.12816 | 14.48380 | 35927 ft | 446 kts | 316° |
| 2026-05-05 09:32 | 47.17576 | 14.42547 | 35915 ft | 446 kts | 316° |
| 2026-05-05 09:32 | 47.22311 | 14.36728 | 35909 ft | 447 kts | 316° |
| 2026-05-05 09:33 | 47.27077 | 14.30866 | 35907 ft | 447 kts | 316° |
| 2026-05-05 09:33 | 47.31839 | 14.24988 | 35898 ft | 447 kts | 316° |
| 2026-05-05 09:34 | 47.36567 | 14.19136 | 35888 ft | 446 kts | 317° |
| 2026-05-05 09:34 | 47.41323 | 14.13248 | 35895 ft | 446 kts | 316° |
| 2026-05-05 09:35 | 47.46070 | 14.07344 | 35864 ft | 446 kts | 316° |
| 2026-05-05 09:35 | 47.53187 | 13.98482 | 35855 ft | 446 kts | 316° |
| 2026-05-05 09:36 | 47.57894 | 13.92605 | 35872 ft | 446 kts | 316° |
| 2026-05-05 09:36 | 47.62636 | 13.86665 | 35867 ft | 447 kts | 316° |
| 2026-05-05 09:37 | 47.67385 | 13.80699 | 35850 ft | 447 kts | 316° |
| 2026-05-05 09:37 | 47.72134 | 13.74713 | 35841 ft | 448 kts | 316° |
| 2026-05-05 09:38 | 47.76883 | 13.68718 | 35830 ft | 448 kts | 316° |
| 2026-05-05 09:38 | 47.81597 | 13.62748 | 35831 ft | 449 kts | 316° |
| 2026-05-05 09:39 | 47.86353 | 13.56723 | 35842 ft | 449 kts | 316° |
| 2026-05-05 09:39 | 47.91108 | 13.50682 | 35834 ft | 449 kts | 316° |
| 2026-05-05 09:40 | 47.95602 | 13.44274 | 35838 ft | 446 kts | 310° |
| 2026-05-05 09:40 | 47.99832 | 13.37597 | 35836 ft | 446 kts | 310° |
| 2026-05-05 09:41 | 48.04104 | 13.30891 | 35834 ft | 446 kts | 310° |
| 2026-05-05 09:41 | 48.08419 | 13.24219 | 35838 ft | 446 kts | 310° |
| 2026-05-05 09:42 | 48.12731 | 13.17545 | 35839 ft | 446 kts | 310° |
| 2026-05-05 09:42 | 48.17015 | 13.10909 | 35836 ft | 446 kts | 310° |
| 2026-05-05 09:43 | 48.21316 | 13.04217 | 35830 ft | 446 kts | 310° |
| 2026-05-05 09:43 | 48.25881 | 12.97896 | 35843 ft | 449 kts | 317° |
| 2026-05-05 09:44 | 48.30807 | 12.92108 | 35840 ft | 450 kts | 318° |
| 2026-05-05 09:44 | 48.35711 | 12.86360 | 35833 ft | 450 kts | 318° |
| 2026-05-05 09:45 | 48.40617 | 12.80527 | 35828 ft | 450 kts | 317° |
| 2026-05-05 09:45 | 48.45511 | 12.74649 | 35825 ft | 449 kts | 317° |
| 2026-05-05 09:46 | 48.50388 | 12.68763 | 35828 ft | 449 kts | 317° |
| 2026-05-05 09:46 | 48.55230 | 12.62912 | 35826 ft | 449 kts | 317° |
| 2026-05-05 09:47 | 48.60102 | 12.57018 | 35824 ft | 448 kts | 317° |
| 2026-05-05 09:47 | 48.64967 | 12.51119 | 35830 ft | 448 kts | 317° |
| 2026-05-05 09:48 | 48.69822 | 12.45195 | 35823 ft | 448 kts | 317° |
| 2026-05-05 09:48 | 48.74638 | 12.39309 | 35821 ft | 448 kts | 317° |
| 2026-05-05 09:49 | 48.79485 | 12.33392 | 35820 ft | 447 kts | 317° |
| 2026-05-05 09:49 | 48.84325 | 12.27457 | 35828 ft | 447 kts | 316° |
| 2026-05-05 09:50 | 48.88900 | 12.21145 | 35834 ft | 441 kts | 305° |
| 2026-05-05 09:50 | 48.92240 | 12.13433 | 35826 ft | 436 kts | 296° |
| 2026-05-05 09:51 | 48.95333 | 12.05499 | 35830 ft | 436 kts | 296° |
| 2026-05-05 09:51 | 48.98424 | 11.97617 | 35839 ft | 437 kts | 297° |
| 2026-05-05 09:52 | 49.01567 | 11.89698 | 35843 ft | 437 kts | 297° |
| 2026-05-05 09:52 | 49.04710 | 11.81757 | 35847 ft | 438 kts | 297° |
| 2026-05-05 09:53 | 49.07858 | 11.73804 | 35846 ft | 438 kts | 297° |
| 2026-05-05 09:53 | 49.10974 | 11.65882 | 35847 ft | 439 kts | 297° |
| 2026-05-05 09:54 | 49.14116 | 11.57889 | 35848 ft | 439 kts | 296° |
| 2026-05-05 09:54 | 49.17254 | 11.49885 | 35835 ft | 439 kts | 296° |
| 2026-05-05 09:55 | 49.20384 | 11.41860 | 35827 ft | 440 kts | 296° |
| 2026-05-05 09:55 | 49.23489 | 11.33871 | 35838 ft | 440 kts | 296° |
| 2026-05-05 09:56 | 49.26611 | 11.25818 | 35839 ft | 440 kts | 296° |
| 2026-05-05 09:56 | 49.29732 | 11.17762 | 35844 ft | 440 kts | 296° |
| 2026-05-05 09:57 | 49.32848 | 11.09692 | 35834 ft | 440 kts | 295° |
| 2026-05-05 09:57 | 49.35942 | 11.01652 | 35834 ft | 441 kts | 295° |
| 2026-05-05 09:58 | 49.39035 | 10.93532 | 35834 ft | 440 kts | 294° |
| 2026-05-05 09:58 | 49.41819 | 10.85200 | 35835 ft | 438 kts | 291° |
| 2026-05-05 09:59 | 49.44495 | 10.76786 | 35886 ft | 438 kts | 291° |
| 2026-05-05 09:59 | 49.47178 | 10.68353 | 35876 ft | 439 kts | 291° |
| 2026-05-05 10:00 | 49.49864 | 10.59989 | 35862 ft | 439 kts | 291° |
| 2026-05-05 10:00 | 49.52568 | 10.51551 | 35861 ft | 439 kts | 291° |
| 2026-05-05 10:01 | 49.55272 | 10.43118 | 35860 ft | 439 kts | 291° |
| 2026-05-05 10:01 | 49.57967 | 10.34684 | 35857 ft | 439 kts | 291° |
| 2026-05-05 10:02 | 49.60629 | 10.26297 | 35857 ft | 439 kts | 291° |
| 2026-05-05 10:02 | 49.63304 | 10.17838 | 35849 ft | 439 kts | 291° |
| 2026-05-05 10:03 | 49.65970 | 10.09379 | 35862 ft | 438 kts | 290° |
| 2026-05-05 10:03 | 49.68631 | 10.00921 | 35856 ft | 438 kts | 291° |
| 2026-05-05 10:04 | 49.71273 | 9.92503 | 35878 ft | 438 kts | 290° |
| 2026-05-05 10:04 | 49.73925 | 9.84008 | 35868 ft | 440 kts | 291° |
| 2026-05-05 10:05 | 49.76586 | 9.75471 | 35861 ft | 441 kts | 290° |
| 2026-05-05 10:05 | 49.79236 | 9.66925 | 35876 ft | 441 kts | 290° |
| 2026-05-05 10:06 | 49.81870 | 9.58421 | 35868 ft | 441 kts | 290° |
| 2026-05-05 10:06 | 49.84512 | 9.49837 | 35874 ft | 441 kts | 290° |
| 2026-05-05 10:07 | 49.87154 | 9.41249 | 35871 ft | 441 kts | 290° |
| 2026-05-05 10:07 | 49.89782 | 9.32664 | 35866 ft | 441 kts | 290° |
| 2026-05-05 10:08 | 49.92393 | 9.24079 | 35870 ft | 440 kts | 290° |
| 2026-05-05 10:08 | 49.94985 | 9.15544 | 35865 ft | 439 kts | 290° |
| 2026-05-05 10:09 | 49.97588 | 9.06965 | 35870 ft | 439 kts | 289° |
| 2026-05-05 10:09 | 50.00181 | 8.98379 | 35863 ft | 439 kts | 289° |
| 2026-05-05 10:10 | 50.02748 | 8.89855 | 35860 ft | 438 kts | 289° |
| 2026-05-05 10:10 | 50.05317 | 8.81267 | 35860 ft | 438 kts | 289° |
| 2026-05-05 10:11 | 50.07584 | 8.72527 | 35859 ft | 434 kts | 285° |
| 2026-05-05 10:11 | 50.09626 | 8.63678 | 35856 ft | 434 kts | 284° |
| 2026-05-05 10:12 | 50.11661 | 8.54817 | 35862 ft | 435 kts | 284° |
| 2026-05-05 10:12 | 50.13708 | 8.46006 | 35859 ft | 435 kts | 285° |
| 2026-05-05 10:13 | 50.15775 | 8.37128 | 35870 ft | 435 kts | 284° |
| 2026-05-05 10:13 | 50.17840 | 8.28248 | 35874 ft | 436 kts | 284° |
| 2026-05-05 10:14 | 50.19905 | 8.19347 | 35877 ft | 436 kts | 284° |
| 2026-05-05 10:14 | 50.21957 | 8.10447 | 35868 ft | 436 kts | 284° |
| 2026-05-05 10:15 | 50.23991 | 8.01593 | 35861 ft | 436 kts | 284° |
| 2026-05-05 10:15 | 50.26031 | 7.92665 | 35863 ft | 436 kts | 284° |
| 2026-05-05 10:16 | 50.28064 | 7.83739 | 35880 ft | 436 kts | 284° |
| 2026-05-05 10:16 | 50.30090 | 7.74803 | 35854 ft | 436 kts | 284° |
| 2026-05-05 10:17 | 50.32098 | 7.65918 | 35860 ft | 436 kts | 284° |
| 2026-05-05 10:17 | 50.34111 | 7.56968 | 35854 ft | 436 kts | 284° |
| 2026-05-05 10:18 | 50.36119 | 7.48005 | 35859 ft | 436 kts | 284° |
| 2026-05-05 10:18 | 50.38121 | 7.39034 | 35869 ft | 436 kts | 283° |
| 2026-05-05 10:19 | 50.40115 | 7.30055 | 35865 ft | 436 kts | 283° |
| 2026-05-05 10:19 | 50.42091 | 7.21120 | 35859 ft | 437 kts | 283° |
| 2026-05-05 10:20 | 50.44074 | 7.12118 | 35870 ft | 436 kts | 283° |
| 2026-05-05 10:20 | 50.46052 | 7.03102 | 35874 ft | 438 kts | 283° |
| 2026-05-05 10:21 | 50.48031 | 6.94048 | 35872 ft | 438 kts | 284° |
| 2026-05-05 10:21 | 50.49989 | 6.85061 | 35870 ft | 437 kts | 283° |
| 2026-05-05 10:22 | 50.51955 | 6.76041 | 35863 ft | 436 kts | 284° |
| 2026-05-05 10:22 | 50.53937 | 6.67067 | 35854 ft | 434 kts | 284° |
| 2026-05-05 10:23 | 50.55911 | 6.58108 | 35849 ft | 433 kts | 284° |
| 2026-05-05 10:23 | 50.57855 | 6.49237 | 35865 ft | 432 kts | 283° |
| 2026-05-05 10:24 | 50.59808 | 6.40281 | 35856 ft | 434 kts | 283° |
| 2026-05-05 10:24 | 50.61763 | 6.31281 | 35857 ft | 435 kts | 283° |
| 2026-05-05 10:25 | 50.63469 | 6.22167 | 35863 ft | 433 kts | 278° |
| 2026-05-05 10:25 | 50.64819 | 6.12975 | 35874 ft | 434 kts | 277° |
| 2026-05-05 10:26 | 50.66166 | 6.03672 | 35885 ft | 437 kts | 277° |
| 2026-05-05 10:26 | 50.67548 | 5.94312 | 35876 ft | 440 kts | 278° |
| 2026-05-05 10:27 | 50.68946 | 5.84916 | 35886 ft | 441 kts | 278° |
| 2026-05-05 10:27 | 50.70345 | 5.75481 | 35882 ft | 442 kts | 278° |
| 2026-05-05 10:28 | 50.71729 | 5.66083 | 35878 ft | 443 kts | 278° |
| 2026-05-05 10:28 | 50.73114 | 5.56618 | 35891 ft | 443 kts | 278° |
| 2026-05-05 10:29 | 50.74493 | 5.47135 | 35875 ft | 443 kts | 278° |
| 2026-05-05 10:29 | 50.75865 | 5.37649 | 35887 ft | 443 kts | 278° |
| 2026-05-05 10:30 | 50.77216 | 5.28247 | 35881 ft | 441 kts | 278° |
| 2026-05-05 10:30 | 50.78565 | 5.18818 | 35895 ft | 439 kts | 278° |
| 2026-05-05 10:31 | 50.79901 | 5.09420 | 35894 ft | 438 kts | 278° |
| 2026-05-05 10:31 | 50.81363 | 5.00069 | 35898 ft | 439 kts | 282° |
| 2026-05-05 10:32 | 50.83138 | 4.90897 | 35894 ft | 439 kts | 282° |
| 2026-05-05 10:32 | 50.84937 | 4.81667 | 35902 ft | 439 kts | 282° |
| 2026-05-05 10:33 | 50.86699 | 4.72410 | 35901 ft | 440 kts | 282° |
| 2026-05-05 10:33 | 50.88448 | 4.63126 | 35917 ft | 441 kts | 282° |
| 2026-05-05 10:34 | 50.90542 | 4.53960 | 35914 ft | 448 kts | 294° |
| 2026-05-05 10:34 | 50.94132 | 4.45879 | 35929 ft | 455 kts | 305° |
| 2026-05-05 10:35 | 50.98217 | 4.38166 | 35915 ft | 457 kts | 306° |
| 2026-05-05 10:35 | 51.02301 | 4.30407 | 35912 ft | 458 kts | 305° |
| 2026-05-05 10:36 | 51.06355 | 4.22584 | 35932 ft | 459 kts | 305° |
| 2026-05-05 10:36 | 51.10368 | 4.14782 | 35930 ft | 459 kts | 305° |
| 2026-05-05 10:37 | 51.14408 | 4.06900 | 35925 ft | 459 kts | 305° |
| 2026-05-05 10:37 | 51.18443 | 3.99008 | 35922 ft | 459 kts | 304° |
| 2026-05-05 10:38 | 51.22465 | 3.91119 | 35912 ft | 458 kts | 304° |
| 2026-05-05 10:38 | 51.26479 | 3.83225 | 35912 ft | 458 kts | 304° |
| 2026-05-05 10:39 | 51.30453 | 3.75390 | 35927 ft | 457 kts | 305° |
| 2026-05-05 10:39 | 51.34321 | 3.67360 | 35915 ft | 452 kts | 297° |
| 2026-05-05 10:40 | 51.36754 | 3.58244 | 35923 ft | 443 kts | 282° |
| 2026-05-05 10:40 | 51.38349 | 3.48736 | 35923 ft | 442 kts | 281° |
| 2026-05-05 10:41 | 51.39953 | 3.39243 | 35928 ft | 441 kts | 282° |
| 2026-05-05 10:41 | 51.41595 | 3.29768 | 35940 ft | 441 kts | 282° |
| 2026-05-05 10:42 | 51.44049 | 3.15623 | 35934 ft | 441 kts | 282° |
| 2026-05-05 10:42 | 51.44867 | 3.10858 | 35521 ft | 448 kts | 282° |
| 2026-05-05 10:43 | 51.45678 | 3.06040 | 34971 ft | 446 kts | 281° |
| 2026-05-05 10:43 | 51.46471 | 3.01231 | 34320 ft | 447 kts | 281° |
| 2026-05-05 10:43 | 51.47257 | 2.96413 | 33630 ft | 447 kts | 281° |
| 2026-05-05 10:43 | 51.48044 | 2.91586 | 32866 ft | 447 kts | 281° |
| 2026-05-05 10:44 | 51.48830 | 2.86767 | 32177 ft | 447 kts | 281° |
| 2026-05-05 10:44 | 51.49609 | 2.81995 | 31459 ft | 448 kts | 281° |
| 2026-05-05 10:44 | 51.50398 | 2.77157 | 30725 ft | 448 kts | 282° |
| 2026-05-05 10:44 | 51.51187 | 2.72307 | 29976 ft | 450 kts | 282° |
| 2026-05-05 10:45 | 51.51975 | 2.67464 | 29351 ft | 446 kts | 282° |
| 2026-05-05 10:45 | 51.52753 | 2.62673 | 28788 ft | 441 kts | 282° |
| 2026-05-05 10:45 | 51.53520 | 2.57939 | 28246 ft | 436 kts | 281° |
| 2026-05-05 10:45 | 51.54274 | 2.53250 | 27702 ft | 431 kts | 281° |
| 2026-05-05 10:46 | 51.55047 | 2.48620 | 27171 ft | 428 kts | 284° |
| 2026-05-05 10:46 | 51.56033 | 2.44115 | 26622 ft | 426 kts | 288° |
| 2026-05-05 10:46 | 51.57086 | 2.39699 | 26103 ft | 422 kts | 288° |
| 2026-05-05 10:46 | 51.58107 | 2.35360 | 25584 ft | 419 kts | 288° |
| 2026-05-05 10:47 | 51.59117 | 2.30988 | 25086 ft | 416 kts | 287° |
| 2026-05-05 10:47 | 51.60109 | 2.26636 | 24578 ft | 413 kts | 288° |
| 2026-05-05 10:47 | 51.61091 | 2.22309 | 24086 ft | 410 kts | 288° |
| 2026-05-05 10:47 | 51.62063 | 2.18010 | 23584 ft | 408 kts | 287° |
| 2026-05-05 10:48 | 51.63201 | 2.13840 | 22969 ft | 408 kts | 300° |
| 2026-05-05 10:48 | 51.64978 | 2.10297 | 22485 ft | 406 kts | 315° |
| 2026-05-05 10:48 | 51.67226 | 2.07575 | 21965 ft | 405 kts | 330° |
| 2026-05-05 10:48 | 51.69708 | 2.05478 | 21547 ft | 401 kts | 332° |
| 2026-05-05 10:49 | 51.72184 | 2.03448 | 21095 ft | 400 kts | 332° |
| 2026-05-05 10:49 | 51.74696 | 2.01374 | 20662 ft | 410 kts | 332° |
| 2026-05-05 10:49 | 51.77231 | 1.99252 | 20202 ft | 409 kts | 332° |
| 2026-05-05 10:49 | 51.79717 | 1.97150 | 19770 ft | 407 kts | 331° |
| 2026-05-05 10:50 | 51.82211 | 1.95026 | 19319 ft | 404 kts | 330° |
| 2026-05-05 10:50 | 51.84685 | 1.92910 | 18891 ft | 401 kts | 330° |
| 2026-05-05 10:50 | 51.87140 | 1.90802 | 18450 ft | 398 kts | 331° |
| 2026-05-05 10:50 | 51.89430 | 1.88366 | 17966 ft | 394 kts | 315° |
| 2026-05-05 10:51 | 51.91101 | 1.84926 | 17619 ft | 385 kts | 300° |
| 2026-05-05 10:51 | 51.92290 | 1.81064 | 17273 ft | 383 kts | 290° |
| 2026-05-05 10:51 | 51.93061 | 1.76944 | 16934 ft | 382 kts | 279° |
| 2026-05-05 10:51 | 51.93428 | 1.72693 | 16615 ft | 380 kts | 276° |
| 2026-05-05 10:52 | 51.93737 | 1.68457 | 16288 ft | 379 kts | 276° |
| 2026-05-05 10:52 | 51.94038 | 1.64225 | 15966 ft | 377 kts | 276° |
| 2026-05-05 10:52 | 51.94338 | 1.60064 | 15652 ft | 376 kts | 276° |
| 2026-05-05 10:52 | 51.94646 | 1.55861 | 15334 ft | 375 kts | 276° |
| 2026-05-05 10:53 | 51.94957 | 1.51677 | 15021 ft | 374 kts | 276° |
| 2026-05-05 10:53 | 51.95270 | 1.47511 | 14709 ft | 370 kts | 276° |
| 2026-05-05 10:53 | 51.95580 | 1.43394 | 14392 ft | 366 kts | 277° |
| 2026-05-05 10:53 | 51.95889 | 1.39299 | 14081 ft | 366 kts | 277° |
| 2026-05-05 10:54 | 51.96196 | 1.35212 | 13780 ft | 365 kts | 277° |
| 2026-05-05 10:54 | 51.96501 | 1.31132 | 13436 ft | 363 kts | 277° |
| 2026-05-05 10:54 | 51.96799 | 1.27129 | 13111 ft | 362 kts | 277° |
| 2026-05-05 10:54 | 51.97098 | 1.23087 | 12795 ft | 360 kts | 277° |
| 2026-05-05 10:55 | 51.97395 | 1.19075 | 12486 ft | 358 kts | 277° |
| 2026-05-05 10:55 | 51.97689 | 1.15073 | 12176 ft | 356 kts | 277° |
| 2026-05-05 10:55 | 51.97979 | 1.11093 | 11878 ft | 355 kts | 277° |
| 2026-05-05 10:55 | 51.98267 | 1.07146 | 11576 ft | 350 kts | 277° |
| 2026-05-05 10:56 | 51.98547 | 1.03276 | 11282 ft | 342 kts | 277° |
| 2026-05-05 10:56 | 51.98821 | 0.99479 | 10988 ft | 335 kts | 277° |
| 2026-05-05 10:56 | 51.99088 | 0.95756 | 10712 ft | 329 kts | 277° |
| 2026-05-05 10:56 | 51.99350 | 0.92106 | 10438 ft | 323 kts | 277° |
| 2026-05-05 10:57 | 51.99610 | 0.88510 | 10168 ft | 318 kts | 278° |
| 2026-05-05 10:57 | 51.99981 | 0.85055 | 9936 ft | 312 kts | 278° |
| 2026-05-05 10:57 | 52.00217 | 0.81641 | 9939 ft | 298 kts | 276° |
| 2026-05-05 10:57 | 52.00416 | 0.78373 | 9917 ft | 285 kts | 276° |
| 2026-05-05 10:58 | 52.00603 | 0.75228 | 9836 ft | 276 kts | 276° |
| 2026-05-05 10:58 | 52.00781 | 0.72149 | 9583 ft | 273 kts | 276° |
| 2026-05-05 10:58 | 52.00960 | 0.69080 | 9276 ft | 273 kts | 276° |
| 2026-05-05 10:58 | 52.01136 | 0.66063 | 9195 ft | 264 kts | 276° |
| 2026-05-05 10:59 | 52.01159 | 0.63140 | 9077 ft | 257 kts | 263° |
| 2026-05-05 10:59 | 52.00860 | 0.60329 | 8997 ft | 248 kts | 261° |
| 2026-05-05 10:59 | 52.00574 | 0.57657 | 8902 ft | 242 kts | 261° |
| 2026-05-05 10:59 | 52.00277 | 0.54938 | 8537 ft | 246 kts | 261° |
| 2026-05-05 11:00 | 51.99973 | 0.52194 | 8242 ft | 247 kts | 261° |
| 2026-05-05 11:00 | 51.99674 | 0.49458 | 8051 ft | 245 kts | 261° |
| 2026-05-05 11:00 | 51.99380 | 0.46727 | 8011 ft | 248 kts | 261° |
| 2026-05-05 11:00 | 51.99090 | 0.43981 | 8008 ft | 246 kts | 261° |
| 2026-05-05 11:01 | 51.98801 | 0.41249 | 8000 ft | 245 kts | 261° |
| 2026-05-05 11:01 | 51.98517 | 0.38531 | 7995 ft | 244 kts | 261° |
| 2026-05-05 11:01 | 51.98231 | 0.35822 | 7891 ft | 242 kts | 261° |
| 2026-05-05 11:01 | 51.97953 | 0.33162 | 7590 ft | 244 kts | 261° |
| 2026-05-05 11:02 | 51.97663 | 0.30445 | 7317 ft | 245 kts | 261° |
| 2026-05-05 11:02 | 51.97369 | 0.27727 | 7091 ft | 244 kts | 261° |
| 2026-05-05 11:02 | 51.97080 | 0.25042 | 6877 ft | 242 kts | 261° |
| 2026-05-05 11:02 | 51.96493 | 0.22486 | 6596 ft | 244 kts | 236° |
| 2026-05-05 11:03 | 51.95490 | 0.20325 | 6453 ft | 239 kts | 232° |
| 2026-05-05 11:03 | 51.94438 | 0.18205 | 6111 ft | 243 kts | 231° |
| 2026-05-05 11:03 | 51.93376 | 0.16080 | 6019 ft | 241 kts | 231° |
| 2026-05-05 11:03 | 51.92322 | 0.13972 | 6005 ft | 240 kts | 231° |
| 2026-05-05 11:04 | 51.91284 | 0.11897 | 5942 ft | 241 kts | 231° |
| 2026-05-05 11:04 | 51.90232 | 0.09794 | 5713 ft | 241 kts | 231° |
| 2026-05-05 11:04 | 51.89181 | 0.07691 | 5468 ft | 241 kts | 231° |
| 2026-05-05 11:04 | 51.88138 | 0.05594 | 5276 ft | 239 kts | 230° |
| 2026-05-05 11:05 | 51.87087 | 0.03474 | 4962 ft | 241 kts | 231° |
| 2026-05-05 11:05 | 51.86043 | 0.01359 | 4652 ft | 243 kts | 231° |
| 2026-05-05 11:05 | 51.84867 | -0.00590 | 4384 ft | 241 kts | 210° |
| 2026-05-05 11:05 | 51.83312 | -0.01468 | 4158 ft | 236 kts | 188° |
| 2026-05-05 11:06 | 51.81683 | -0.01861 | 3862 ft | 238 kts | 186° |
| 2026-05-05 11:06 | 51.80047 | -0.02198 | 3628 ft | 237 kts | 186° |
| 2026-05-05 11:06 | 51.78428 | -0.02522 | 3426 ft | 235 kts | 186° |
| 2026-05-05 11:06 | 51.76839 | -0.02521 | 3353 ft | 224 kts | 162° |
| 2026-05-05 11:07 | 51.75508 | -0.01343 | 3127 ft | 219 kts | 138° |
| 2026-05-05 11:07 | 51.74519 | 0.00473 | 2862 ft | 214 kts | 110° |
| 2026-05-05 11:07 | 51.74318 | 0.02779 | 2519 ft | 210 kts | 72° |
| 2026-05-05 11:07 | 51.75120 | 0.04578 | 2420 ft | 196 kts | 31° |
| 2026-05-05 11:08 | 51.76281 | 0.05635 | 2327 ft | 189 kts | 34° |
| 2026-05-05 11:08 | 51.77318 | 0.06867 | 2240 ft | 182 kts | 37° |
| 2026-05-05 11:08 | 51.78267 | 0.08117 | 2202 ft | 171 kts | 40° |
| 2026-05-05 11:08 | 51.79121 | 0.09361 | 2076 ft | 164 kts | 41° |
| 2026-05-05 11:09 | 51.79934 | 0.10580 | 2005 ft | 162 kts | 41° |
| 2026-05-05 11:09 | 51.80763 | 0.11828 | 1997 ft | 161 kts | 42° |
| 2026-05-05 11:09 | 51.81559 | 0.13029 | 2006 ft | 151 kts | 41° |
| 2026-05-05 11:09 | 51.82333 | 0.14195 | 1840 ft | 153 kts | 42° |
| 2026-05-05 11:10 | 51.83114 | 0.15373 | 1644 ft | 156 kts | 42° |
| 2026-05-05 11:10 | 51.83903 | 0.16562 | 1421 ft | 153 kts | 42° |
| 2026-05-05 11:10 | 51.84660 | 0.17702 | 1234 ft | 145 kts | 40° |
| 2026-05-05 11:10 | 51.85407 | 0.18794 | 1005 ft | 143 kts | 43° |
| 2026-05-05 11:11 | 51.86107 | 0.19912 | 801 ft | 140 kts | 43° |
| 2026-05-05 11:11 | 51.86827 | 0.20983 | 619 ft | 143 kts | 42° |
| 2026-05-05 11:11 | 51.87571 | 0.22086 | 399 ft | 145 kts | 43° |
| 2026-05-05 11:11 | 51.88276 | 0.23153 | 334 ft | 125 kts | 42° |
| 2026-05-05 11:12 | 51.88758 | 0.23878 | 340 ft | 63 kts | 47° |
| 2026-05-05 11:12 | 51.88866 | 0.24187 | 347 ft | 1 kts | 80° |